sensor_id;sensor_type;location;lat;lon;timestamp;P1;durP1;ratioP1;P2;durP2;ratioP2
20322;SDS011;10319;52.206;20.996;2023-04-03T00:02:06;6.43;;;1.20;;
20322;SDS011;10319;52.206;20.996;2023-04-03T00:04:31;6.53;;;1.03;;
20322;SDS011;10319;52.206;20.996;2023-04-03T00:06:56;4.50;;;1.07;;
20322;SDS011;10319;52.206;20.996;2023-04-03T00:09:22;5.43;;;1.10;;
20322;SDS011;10319;52.206;20.996;2023-04-03T00:11:47;9.23;;;1.33;;
20322;SDS011;10319;52.206;20.996;2023-04-03T00:14:12;3.40;;;0.90;;
20322;SDS011;10319;52.206;20.996;2023-04-03T00:16:37;3.83;;;0.80;;
20322;SDS011;10319;52.206;20.996;2023-04-03T00:19:03;7.37;;;1.53;;
20322;SDS011;10319;52.206;20.996;2023-04-03T00:21:28;4.93;;;1.03;;
20322;SDS011;10319;52.206;20.996;2023-04-03T00:23:53;6.77;;;1.37;;
20322;SDS011;10319;52.206;20.996;2023-04-03T00:26:18;6.63;;;1.33;;
20322;SDS011;10319;52.206;20.996;2023-04-03T00:28:44;6.07;;;1.30;;
20322;SDS011;10319;52.206;20.996;2023-04-03T00:31:09;5.60;;;1.10;;
20322;SDS011;10319;52.206;20.996;2023-04-03T00:33:34;7.03;;;1.20;;
20322;SDS011;10319;52.206;20.996;2023-04-03T00:36:04;7.30;;;1.30;;
20322;SDS011;10319;52.206;20.996;2023-04-03T00:38:30;4.67;;;1.10;;
20322;SDS011;10319;52.206;20.996;2023-04-03T00:40:56;7.57;;;1.40;;
20322;SDS011;10319;52.206;20.996;2023-04-03T00:43:22;7.03;;;1.40;;
20322;SDS011;10319;52.206;20.996;2023-04-03T00:45:48;4.27;;;1.20;;
20322;SDS011;10319;52.206;20.996;2023-04-03T00:48:18;7.30;;;1.40;;
20322;SDS011;10319;52.206;20.996;2023-04-03T00:50:44;5.97;;;1.47;;
20322;SDS011;10319;52.206;20.996;2023-04-03T00:53:17;8.90;;;1.40;;
20322;SDS011;10319;52.206;20.996;2023-04-03T00:55:44;5.80;;;1.00;;
20322;SDS011;10319;52.206;20.996;2023-04-03T00:58:10;4.53;;;0.70;;
20322;SDS011;10319;52.206;20.996;2023-04-03T01:00:37;4.20;;;0.97;;
20322;SDS011;10319;52.206;20.996;2023-04-03T01:03:05;5.33;;;0.90;;
20322;SDS011;10319;52.206;20.996;2023-04-03T01:05:30;4.83;;;0.97;;
20322;SDS011;10319;52.206;20.996;2023-04-03T01:07:56;3.80;;;0.80;;
20322;SDS011;10319;52.206;20.996;2023-04-03T01:10:21;5.90;;;1.03;;
20322;SDS011;10319;52.206;20.996;2023-04-03T01:12:48;6.83;;;1.20;;
20322;SDS011;10319;52.206;20.996;2023-04-03T01:15:16;4.73;;;1.00;;
20322;SDS011;10319;52.206;20.996;2023-04-03T01:25:26;5.50;;;1.13;;
20322;SDS011;10319;52.206;20.996;2023-04-03T01:27:51;5.07;;;1.00;;
20322;SDS011;10319;52.206;20.996;2023-04-03T01:30:17;5.77;;;1.00;;
20322;SDS011;10319;52.206;20.996;2023-04-03T01:32:42;5.40;;;1.03;;
20322;SDS011;10319;52.206;20.996;2023-04-03T01:35:08;4.47;;;1.10;;
20322;SDS011;10319;52.206;20.996;2023-04-03T01:37:33;6.27;;;1.10;;
20322;SDS011;10319;52.206;20.996;2023-04-03T01:39:59;6.17;;;1.10;;
20322;SDS011;10319;52.206;20.996;2023-04-03T01:42:24;7.07;;;1.03;;
20322;SDS011;10319;52.206;20.996;2023-04-03T01:44:49;8.17;;;1.23;;
20322;SDS011;10319;52.206;20.996;2023-04-03T01:47:15;5.03;;;1.00;;
20322;SDS011;10319;52.206;20.996;2023-04-03T01:49:40;4.63;;;1.00;;
20322;SDS011;10319;52.206;20.996;2023-04-03T01:52:05;2.23;;;0.60;;
20322;SDS011;10319;52.206;20.996;2023-04-03T01:54:30;4.57;;;0.80;;
20322;SDS011;10319;52.206;20.996;2023-04-03T01:56:56;2.60;;;0.87;;
20322;SDS011;10319;52.206;20.996;2023-04-03T01:59:21;6.00;;;1.10;;
20322;SDS011;10319;52.206;20.996;2023-04-03T02:01:46;5.00;;;1.00;;
20322;SDS011;10319;52.206;20.996;2023-04-03T02:04:11;4.27;;;0.90;;
20322;SDS011;10319;52.206;20.996;2023-04-03T02:06:37;6.20;;;1.00;;
20322;SDS011;10319;52.206;20.996;2023-04-03T02:09:02;4.70;;;0.90;;
20322;SDS011;10319;52.206;20.996;2023-04-03T02:11:28;3.33;;;0.80;;
20322;SDS011;10319;52.206;20.996;2023-04-03T02:13:53;2.20;;;0.60;;
20322;SDS011;10319;52.206;20.996;2023-04-03T02:16:18;2.93;;;0.60;;
20322;SDS011;10319;52.206;20.996;2023-04-03T02:18:43;5.93;;;0.97;;
20322;SDS011;10319;52.206;20.996;2023-04-03T02:21:09;3.20;;;0.67;;
20322;SDS011;10319;52.206;20.996;2023-04-03T02:23:34;4.57;;;0.90;;
20322;SDS011;10319;52.206;20.996;2023-04-03T02:26:02;4.70;;;1.00;;
20322;SDS011;10319;52.206;20.996;2023-04-03T02:28:28;6.93;;;0.80;;
20322;SDS011;10319;52.206;20.996;2023-04-03T02:30:53;5.30;;;0.90;;
20322;SDS011;10319;52.206;20.996;2023-04-03T02:33:18;4.57;;;0.97;;
20322;SDS011;10319;52.206;20.996;2023-04-03T02:35:44;3.93;;;0.80;;
20322;SDS011;10319;52.206;20.996;2023-04-03T02:38:11;5.60;;;1.00;;
20322;SDS011;10319;52.206;20.996;2023-04-03T02:40:36;2.40;;;0.73;;
20322;SDS011;10319;52.206;20.996;2023-04-03T02:43:02;6.33;;;1.13;;
20322;SDS011;10319;52.206;20.996;2023-04-03T02:45:27;4.73;;;1.03;;
20322;SDS011;10319;52.206;20.996;2023-04-03T02:47:52;1.97;;;0.70;;
20322;SDS011;10319;52.206;20.996;2023-04-03T02:50:18;7.07;;;0.90;;
20322;SDS011;10319;52.206;20.996;2023-04-03T02:52:43;4.20;;;0.87;;
20322;SDS011;10319;52.206;20.996;2023-04-03T02:55:08;4.47;;;1.03;;
20322;SDS011;10319;52.206;20.996;2023-04-03T02:57:33;3.67;;;0.90;;
20322;SDS011;10319;52.206;20.996;2023-04-03T02:59:59;5.90;;;1.10;;
20322;SDS011;10319;52.206;20.996;2023-04-03T03:02:24;4.57;;;0.87;;
20322;SDS011;10319;52.206;20.996;2023-04-03T03:04:49;4.00;;;0.60;;
20322;SDS011;10319;52.206;20.996;2023-04-03T03:07:15;4.63;;;0.90;;
20322;SDS011;10319;52.206;20.996;2023-04-03T03:09:40;3.80;;;0.70;;
20322;SDS011;10319;52.206;20.996;2023-04-03T03:12:05;6.33;;;0.90;;
20322;SDS011;10319;52.206;20.996;2023-04-03T03:14:30;5.23;;;0.80;;
20322;SDS011;10319;52.206;20.996;2023-04-03T03:16:56;6.63;;;1.00;;
20322;SDS011;10319;52.206;20.996;2023-04-03T03:19:21;8.70;;;0.97;;
20322;SDS011;10319;52.206;20.996;2023-04-03T03:21:46;4.53;;;0.90;;
20322;SDS011;10319;52.206;20.996;2023-04-03T03:24:11;6.27;;;1.00;;
20322;SDS011;10319;52.206;20.996;2023-04-03T03:26:37;4.53;;;0.87;;
20322;SDS011;10319;52.206;20.996;2023-04-03T03:29:02;5.37;;;1.17;;
20322;SDS011;10319;52.206;20.996;2023-04-03T03:31:27;5.57;;;1.13;;
20322;SDS011;10319;52.206;20.996;2023-04-03T03:33:52;4.30;;;1.00;;
20322;SDS011;10319;52.206;20.996;2023-04-03T03:36:18;6.50;;;0.87;;
20322;SDS011;10319;52.206;20.996;2023-04-03T03:38:43;2.80;;;0.80;;
20322;SDS011;10319;52.206;20.996;2023-04-03T03:41:08;3.73;;;0.70;;
20322;SDS011;10319;52.206;20.996;2023-04-03T03:43:34;4.93;;;1.03;;
20322;SDS011;10319;52.206;20.996;2023-04-03T03:45:59;5.30;;;1.20;;
20322;SDS011;10319;52.206;20.996;2023-04-03T03:48:25;5.70;;;1.20;;
20322;SDS011;10319;52.206;20.996;2023-04-03T03:50:50;7.20;;;1.30;;
20322;SDS011;10319;52.206;20.996;2023-04-03T03:53:15;3.97;;;1.10;;
20322;SDS011;10319;52.206;20.996;2023-04-03T03:55:41;8.37;;;1.33;;
20322;SDS011;10319;52.206;20.996;2023-04-03T03:58:06;5.50;;;1.20;;
20322;SDS011;10319;52.206;20.996;2023-04-03T04:00:32;9.17;;;1.47;;
20322;SDS011;10319;52.206;20.996;2023-04-03T04:02:57;7.03;;;1.13;;
20322;SDS011;10319;52.206;20.996;2023-04-03T04:05:22;5.27;;;1.00;;
20322;SDS011;10319;52.206;20.996;2023-04-03T04:07:47;6.20;;;1.00;;
20322;SDS011;10319;52.206;20.996;2023-04-03T04:10:13;4.57;;;1.00;;
20322;SDS011;10319;52.206;20.996;2023-04-03T04:12:38;5.67;;;0.87;;
20322;SDS011;10319;52.206;20.996;2023-04-03T04:15:04;5.43;;;1.10;;
20322;SDS011;10319;52.206;20.996;2023-04-03T04:17:29;8.17;;;1.20;;
20322;SDS011;10319;52.206;20.996;2023-04-03T04:19:54;3.80;;;0.90;;
20322;SDS011;10319;52.206;20.996;2023-04-03T04:22:20;5.63;;;0.93;;
20322;SDS011;10319;52.206;20.996;2023-04-03T04:24:45;7.63;;;1.30;;
20322;SDS011;10319;52.206;20.996;2023-04-03T04:27:10;4.17;;;1.00;;
20322;SDS011;10319;52.206;20.996;2023-04-03T04:29:35;6.40;;;1.20;;
20322;SDS011;10319;52.206;20.996;2023-04-03T04:32:02;5.30;;;1.37;;
20322;SDS011;10319;52.206;20.996;2023-04-03T04:34:27;6.37;;;1.30;;
20322;SDS011;10319;52.206;20.996;2023-04-03T04:36:53;8.23;;;1.30;;
20322;SDS011;10319;52.206;20.996;2023-04-03T04:39:18;6.63;;;1.20;;
20322;SDS011;10319;52.206;20.996;2023-04-03T04:41:43;5.57;;;1.27;;
20322;SDS011;10319;52.206;20.996;2023-04-03T04:44:09;4.50;;;0.80;;
20322;SDS011;10319;52.206;20.996;2023-04-03T04:46:35;5.33;;;1.00;;
20322;SDS011;10319;52.206;20.996;2023-04-03T04:49:01;4.90;;;1.03;;
20322;SDS011;10319;52.206;20.996;2023-04-03T04:51:27;6.80;;;1.23;;
20322;SDS011;10319;52.206;20.996;2023-04-03T04:53:52;5.10;;;1.07;;
20322;SDS011;10319;52.206;20.996;2023-04-03T04:56:17;5.07;;;0.90;;
20322;SDS011;10319;52.206;20.996;2023-04-03T04:58:42;7.40;;;1.47;;
20322;SDS011;10319;52.206;20.996;2023-04-03T05:01:09;6.80;;;1.30;;
20322;SDS011;10319;52.206;20.996;2023-04-03T05:03:34;5.37;;;1.13;;
20322;SDS011;10319;52.206;20.996;2023-04-03T05:06:00;5.43;;;1.10;;
20322;SDS011;10319;52.206;20.996;2023-04-03T05:08:26;7.93;;;1.57;;
20322;SDS011;10319;52.206;20.996;2023-04-03T05:10:51;5.23;;;1.07;;
20322;SDS011;10319;52.206;20.996;2023-04-03T05:13:18;7.40;;;1.60;;
20322;SDS011;10319;52.206;20.996;2023-04-03T05:15:43;6.07;;;1.03;;
20322;SDS011;10319;52.206;20.996;2023-04-03T05:18:08;10.77;;;1.53;;
20322;SDS011;10319;52.206;20.996;2023-04-03T05:20:34;5.97;;;1.20;;
20322;SDS011;10319;52.206;20.996;2023-04-03T05:22:59;8.80;;;1.30;;
20322;SDS011;10319;52.206;20.996;2023-04-03T05:25:25;4.93;;;1.20;;
20322;SDS011;10319;52.206;20.996;2023-04-03T05:27:50;4.83;;;1.20;;
20322;SDS011;10319;52.206;20.996;2023-04-03T05:30:16;6.17;;;1.23;;
20322;SDS011;10319;52.206;20.996;2023-04-03T05:32:41;9.10;;;1.43;;
20322;SDS011;10319;52.206;20.996;2023-04-03T05:35:07;3.80;;;0.93;;
20322;SDS011;10319;52.206;20.996;2023-04-03T05:37:33;6.63;;;1.40;;
20322;SDS011;10319;52.206;20.996;2023-04-03T05:39:58;6.87;;;1.30;;
20322;SDS011;10319;52.206;20.996;2023-04-03T05:42:24;7.03;;;1.20;;
20322;SDS011;10319;52.206;20.996;2023-04-03T05:44:49;7.73;;;1.30;;
20322;SDS011;10319;52.206;20.996;2023-04-03T05:47:15;7.60;;;1.30;;
20322;SDS011;10319;52.206;20.996;2023-04-03T05:52:44;8.00;;;1.50;;
20322;SDS011;10319;52.206;20.996;2023-04-03T05:55:11;4.80;;;1.30;;
20322;SDS011;10319;52.206;20.996;2023-04-03T05:57:36;7.40;;;1.23;;
20322;SDS011;10319;52.206;20.996;2023-04-03T06:00:02;8.90;;;1.40;;
20322;SDS011;10319;52.206;20.996;2023-04-03T06:02:28;8.33;;;1.30;;
20322;SDS011;10319;52.206;20.996;2023-04-03T06:04:53;7.23;;;1.10;;
20322;SDS011;10319;52.206;20.996;2023-04-03T06:07:20;7.90;;;1.20;;
20322;SDS011;10319;52.206;20.996;2023-04-03T06:09:47;7.57;;;1.60;;
20322;SDS011;10319;52.206;20.996;2023-04-03T06:12:12;6.10;;;1.30;;
20322;SDS011;10319;52.206;20.996;2023-04-03T06:14:38;5.73;;;1.23;;
20322;SDS011;10319;52.206;20.996;2023-04-03T06:17:03;6.10;;;1.10;;
20322;SDS011;10319;52.206;20.996;2023-04-03T06:19:29;8.70;;;1.40;;
20322;SDS011;10319;52.206;20.996;2023-04-03T06:21:55;6.97;;;1.40;;
20322;SDS011;10319;52.206;20.996;2023-04-03T06:24:20;4.30;;;0.90;;
20322;SDS011;10319;52.206;20.996;2023-04-03T06:26:47;6.37;;;1.00;;
20322;SDS011;10319;52.206;20.996;2023-04-03T06:29:13;6.17;;;1.13;;
20322;SDS011;10319;52.206;20.996;2023-04-03T06:31:39;6.63;;;1.30;;
20322;SDS011;10319;52.206;20.996;2023-04-03T06:34:04;4.63;;;0.80;;
20322;SDS011;10319;52.206;20.996;2023-04-03T06:36:31;7.47;;;1.70;;
20322;SDS011;10319;52.206;20.996;2023-04-03T06:38:56;5.73;;;1.30;;
20322;SDS011;10319;52.206;20.996;2023-04-03T06:41:22;5.43;;;1.10;;
20322;SDS011;10319;52.206;20.996;2023-04-03T06:43:47;8.33;;;1.30;;
20322;SDS011;10319;52.206;20.996;2023-04-03T06:46:16;8.60;;;1.43;;
20322;SDS011;10319;52.206;20.996;2023-04-03T06:48:42;6.83;;;1.10;;
20322;SDS011;10319;52.206;20.996;2023-04-03T06:51:10;8.50;;;1.43;;
20322;SDS011;10319;52.206;20.996;2023-04-03T06:53:36;4.57;;;0.90;;
20322;SDS011;10319;52.206;20.996;2023-04-03T06:56:01;9.47;;;1.70;;
20322;SDS011;10319;52.206;20.996;2023-04-03T06:58:27;4.60;;;1.03;;
20322;SDS011;10319;52.206;20.996;2023-04-03T07:00:52;5.00;;;1.20;;
20322;SDS011;10319;52.206;20.996;2023-04-03T07:03:18;7.27;;;1.30;;
20322;SDS011;10319;52.206;20.996;2023-04-03T07:05:43;6.47;;;1.50;;
20322;SDS011;10319;52.206;20.996;2023-04-03T07:08:09;5.27;;;1.00;;
20322;SDS011;10319;52.206;20.996;2023-04-03T07:10:35;8.37;;;1.67;;
20322;SDS011;10319;52.206;20.996;2023-04-03T07:13:00;8.40;;;1.53;;
20322;SDS011;10319;52.206;20.996;2023-04-03T07:15:26;6.07;;;1.23;;
20322;SDS011;10319;52.206;20.996;2023-04-03T07:17:51;6.53;;;1.20;;
20322;SDS011;10319;52.206;20.996;2023-04-03T07:20:17;7.83;;;1.43;;
20322;SDS011;10319;52.206;20.996;2023-04-03T07:22:42;4.93;;;1.27;;
20322;SDS011;10319;52.206;20.996;2023-04-03T07:25:07;8.87;;;1.63;;
20322;SDS011;10319;52.206;20.996;2023-04-03T07:27:33;7.83;;;1.50;;
20322;SDS011;10319;52.206;20.996;2023-04-03T07:29:58;7.80;;;1.33;;
20322;SDS011;10319;52.206;20.996;2023-04-03T07:32:23;6.57;;;1.20;;
20322;SDS011;10319;52.206;20.996;2023-04-03T07:34:49;7.13;;;1.43;;
20322;SDS011;10319;52.206;20.996;2023-04-03T07:37:14;8.40;;;1.47;;
20322;SDS011;10319;52.206;20.996;2023-04-03T07:39:39;7.07;;;1.40;;
20322;SDS011;10319;52.206;20.996;2023-04-03T07:42:05;3.23;;;0.97;;
20322;SDS011;10319;52.206;20.996;2023-04-03T07:44:30;7.03;;;1.40;;
20322;SDS011;10319;52.206;20.996;2023-04-03T07:46:55;5.10;;;1.23;;
20322;SDS011;10319;52.206;20.996;2023-04-03T07:49:21;4.60;;;1.10;;
20322;SDS011;10319;52.206;20.996;2023-04-03T07:51:49;6.43;;;1.30;;
20322;SDS011;10319;52.206;20.996;2023-04-03T07:54:14;7.50;;;1.23;;
20322;SDS011;10319;52.206;20.996;2023-04-03T07:56:40;8.17;;;1.47;;
20322;SDS011;10319;52.206;20.996;2023-04-03T07:59:06;6.20;;;1.30;;
20322;SDS011;10319;52.206;20.996;2023-04-03T08:01:31;3.80;;;1.00;;
20322;SDS011;10319;52.206;20.996;2023-04-03T08:03:58;5.83;;;1.10;;
20322;SDS011;10319;52.206;20.996;2023-04-03T08:06:24;6.37;;;1.10;;
20322;SDS011;10319;52.206;20.996;2023-04-03T08:08:49;7.90;;;1.10;;
20322;SDS011;10319;52.206;20.996;2023-04-03T08:11:14;3.93;;;1.00;;
20322;SDS011;10319;52.206;20.996;2023-04-03T08:13:39;7.27;;;1.13;;
20322;SDS011;10319;52.206;20.996;2023-04-03T08:16:16;5.43;;;1.03;;
20322;SDS011;10319;52.206;20.996;2023-04-03T08:18:41;5.33;;;1.10;;
20322;SDS011;10319;52.206;20.996;2023-04-03T08:21:08;5.43;;;1.10;;
20322;SDS011;10319;52.206;20.996;2023-04-03T08:23:33;5.23;;;1.03;;
20322;SDS011;10319;52.206;20.996;2023-04-03T08:25:58;6.90;;;1.10;;
20322;SDS011;10319;52.206;20.996;2023-04-03T08:28:23;9.43;;;1.20;;
20322;SDS011;10319;52.206;20.996;2023-04-03T08:30:49;5.37;;;1.23;;
20322;SDS011;10319;52.206;20.996;2023-04-03T08:33:14;5.20;;;1.20;;
20322;SDS011;10319;52.206;20.996;2023-04-03T08:35:40;5.57;;;1.27;;
20322;SDS011;10319;52.206;20.996;2023-04-03T08:38:06;5.57;;;1.20;;
20322;SDS011;10319;52.206;20.996;2023-04-03T08:40:31;5.47;;;1.23;;
20322;SDS011;10319;52.206;20.996;2023-04-03T08:43:03;3.73;;;1.10;;
20322;SDS011;10319;52.206;20.996;2023-04-03T08:48:33;4.87;;;1.17;;
20322;SDS011;10319;52.206;20.996;2023-04-03T08:51:00;7.93;;;1.40;;
20322;SDS011;10319;52.206;20.996;2023-04-03T08:53:30;2.47;;;0.90;;
20322;SDS011;10319;52.206;20.996;2023-04-03T08:55:57;6.03;;;1.40;;
20322;SDS011;10319;52.206;20.996;2023-04-03T09:01:02;5.13;;;1.00;;
20322;SDS011;10319;52.206;20.996;2023-04-03T09:03:29;8.57;;;1.47;;
20322;SDS011;10319;52.206;20.996;2023-04-03T09:08:27;6.00;;;1.00;;
20322;SDS011;10319;52.206;20.996;2023-04-03T09:11:05;7.27;;;1.20;;
20322;SDS011;10319;52.206;20.996;2023-04-03T09:16:27;5.77;;;1.17;;
20322;SDS011;10319;52.206;20.996;2023-04-03T09:18:57;4.50;;;1.00;;
20322;SDS011;10319;52.206;20.996;2023-04-03T09:21:25;3.60;;;0.97;;
20322;SDS011;10319;52.206;20.996;2023-04-03T09:23:53;5.77;;;1.17;;
20322;SDS011;10319;52.206;20.996;2023-04-03T09:26:36;5.80;;;1.20;;
20322;SDS011;10319;52.206;20.996;2023-04-03T09:29:08;4.50;;;1.00;;
20322;SDS011;10319;52.206;20.996;2023-04-03T09:31:40;5.50;;;1.00;;
20322;SDS011;10319;52.206;20.996;2023-04-03T09:34:08;4.30;;;0.90;;
20322;SDS011;10319;52.206;20.996;2023-04-03T09:39:04;6.87;;;1.33;;
20322;SDS011;10319;52.206;20.996;2023-04-03T09:41:30;5.90;;;0.90;;
20322;SDS011;10319;52.206;20.996;2023-04-03T09:43:55;5.27;;;1.40;;
20322;SDS011;10319;52.206;20.996;2023-04-03T09:46:31;2.53;;;0.93;;
20322;SDS011;10319;52.206;20.996;2023-04-03T09:48:57;4.40;;;1.13;;
20322;SDS011;10319;52.206;20.996;2023-04-03T09:51:26;6.67;;;1.40;;
20322;SDS011;10319;52.206;20.996;2023-04-03T09:53:52;4.97;;;1.17;;
20322;SDS011;10319;52.206;20.996;2023-04-03T09:56:19;4.53;;;1.13;;
20322;SDS011;10319;52.206;20.996;2023-04-03T09:58:53;4.13;;;1.30;;
20322;SDS011;10319;52.206;20.996;2023-04-03T10:01:32;5.27;;;1.10;;
20322;SDS011;10319;52.206;20.996;2023-04-03T10:06:29;5.47;;;1.40;;
20322;SDS011;10319;52.206;20.996;2023-04-03T10:08:59;5.17;;;1.13;;
20322;SDS011;10319;52.206;20.996;2023-04-03T10:11:26;4.03;;;0.83;;
20322;SDS011;10319;52.206;20.996;2023-04-03T10:16:18;6.10;;;1.00;;
20322;SDS011;10319;52.206;20.996;2023-04-03T10:21:48;6.23;;;1.00;;
20322;SDS011;10319;52.206;20.996;2023-04-03T10:24:18;5.87;;;1.20;;
20322;SDS011;10319;52.206;20.996;2023-04-03T10:32:00;3.50;;;0.90;;
20322;SDS011;10319;52.206;20.996;2023-04-03T10:34:35;4.33;;;1.00;;
20322;SDS011;10319;52.206;20.996;2023-04-03T10:39:39;5.53;;;1.20;;
20322;SDS011;10319;52.206;20.996;2023-04-03T10:42:22;3.93;;;0.90;;
20322;SDS011;10319;52.206;20.996;2023-04-03T10:49:51;4.23;;;1.20;;
20322;SDS011;10319;52.206;20.996;2023-04-03T10:54:59;6.53;;;1.10;;
20322;SDS011;10319;52.206;20.996;2023-04-03T10:57:25;3.37;;;0.80;;
20322;SDS011;10319;52.206;20.996;2023-04-03T10:59:59;4.47;;;0.80;;
20322;SDS011;10319;52.206;20.996;2023-04-03T11:02:33;2.67;;;0.77;;
20322;SDS011;10319;52.206;20.996;2023-04-03T11:05:06;2.83;;;0.80;;
20322;SDS011;10319;52.206;20.996;2023-04-03T11:07:38;4.10;;;0.90;;
20322;SDS011;10319;52.206;20.996;2023-04-03T11:10:15;3.70;;;0.93;;
20322;SDS011;10319;52.206;20.996;2023-04-03T11:12:46;3.77;;;0.90;;
20322;SDS011;10319;52.206;20.996;2023-04-03T11:15:14;5.50;;;0.80;;
20322;SDS011;10319;52.206;20.996;2023-04-03T11:17:41;3.90;;;0.67;;
20322;SDS011;10319;52.206;20.996;2023-04-03T11:20:18;5.68;;;0.80;;
20322;SDS011;10319;52.206;20.996;2023-04-03T11:22:47;4.97;;;0.90;;
20322;SDS011;10319;52.206;20.996;2023-04-03T11:25:15;5.10;;;0.80;;
20322;SDS011;10319;52.206;20.996;2023-04-03T11:27:55;2.42;;;0.50;;
20322;SDS011;10319;52.206;20.996;2023-04-03T11:30:23;4.20;;;0.90;;
20322;SDS011;10319;52.206;20.996;2023-04-03T11:32:57;4.25;;;0.70;;
20322;SDS011;10319;52.206;20.996;2023-04-03T11:35:26;2.70;;;0.65;;
20322;SDS011;10319;52.206;20.996;2023-04-03T11:37:52;4.55;;;0.80;;
20322;SDS011;10319;52.206;20.996;2023-04-03T11:40:26;5.05;;;1.10;;
20322;SDS011;10319;52.206;20.996;2023-04-03T11:47:53;5.00;;;0.60;;
20322;SDS011;10319;52.206;20.996;2023-04-03T11:53:02;2.63;;;0.77;;
20322;SDS011;10319;52.206;20.996;2023-04-03T12:13:31;3.83;;;0.77;;
20322;SDS011;10319;52.206;20.996;2023-04-03T12:15:57;2.80;;;0.68;;
20322;SDS011;10319;52.206;20.996;2023-04-03T12:21:09;2.20;;;0.50;;
20322;SDS011;10319;52.206;20.996;2023-04-03T12:23:36;2.95;;;0.60;;
20322;SDS011;10319;52.206;20.996;2023-04-03T12:26:25;2.67;;;0.47;;
20322;SDS011;10319;52.206;20.996;2023-04-03T12:28:50;3.22;;;0.50;;
20322;SDS011;10319;52.206;20.996;2023-04-03T12:31:18;2.67;;;0.70;;
20322;SDS011;10319;52.206;20.996;2023-04-03T12:36:37;3.03;;;0.77;;
20322;SDS011;10319;52.206;20.996;2023-04-03T12:45:09;1.38;;;0.50;;
20322;SDS011;10319;52.206;20.996;2023-04-03T12:47:08;2.70;;;0.63;;
20322;SDS011;10319;52.206;20.996;2023-04-03T12:49:41;3.53;;;0.52;;
20322;SDS011;10319;52.206;20.996;2023-04-03T12:52:18;2.80;;;0.60;;
20322;SDS011;10319;52.206;20.996;2023-04-03T12:54:45;3.83;;;0.98;;
20322;SDS011;10319;52.206;20.996;2023-04-03T12:59:36;2.70;;;0.77;;
20322;SDS011;10319;52.206;20.996;2023-04-03T13:02:03;4.88;;;0.50;;
20322;SDS011;10319;52.206;20.996;2023-04-03T13:04:35;4.15;;;0.77;;
20322;SDS011;10319;52.206;20.996;2023-04-03T13:07:03;2.75;;;0.70;;
20322;SDS011;10319;52.206;20.996;2023-04-03T13:09:30;5.43;;;0.65;;
20322;SDS011;10319;52.206;20.996;2023-04-03T13:14:25;4.32;;;0.65;;
20322;SDS011;10319;52.206;20.996;2023-04-03T13:16:56;3.53;;;0.50;;
20322;SDS011;10319;52.206;20.996;2023-04-03T13:19:22;2.55;;;0.57;;
20322;SDS011;10319;52.206;20.996;2023-04-03T13:21:48;3.78;;;0.70;;
20322;SDS011;10319;52.206;20.996;2023-04-03T13:24:14;2.63;;;0.60;;
20322;SDS011;10319;52.206;20.996;2023-04-03T13:26:40;2.90;;;0.73;;
20322;SDS011;10319;52.206;20.996;2023-04-03T13:29:06;4.27;;;0.87;;
20322;SDS011;10319;52.206;20.996;2023-04-03T13:31:33;2.87;;;0.57;;
20322;SDS011;10319;52.206;20.996;2023-04-03T13:34:16;2.60;;;0.60;;
20322;SDS011;10319;52.206;20.996;2023-04-03T13:41:41;3.17;;;0.60;;
20322;SDS011;10319;52.206;20.996;2023-04-03T13:46:48;2.80;;;0.50;;
20322;SDS011;10319;52.206;20.996;2023-04-03T13:51:51;2.97;;;0.67;;
20322;SDS011;10319;52.206;20.996;2023-04-03T13:54:51;5.23;;;0.77;;
20322;SDS011;10319;52.206;20.996;2023-04-03T13:57:12;1.70;;;0.50;;
20322;SDS011;10319;52.206;20.996;2023-04-03T13:59:38;4.80;;;0.80;;
20322;SDS011;10319;52.206;20.996;2023-04-03T14:02:09;3.17;;;0.57;;
20322;SDS011;10319;52.206;20.996;2023-04-03T14:07:12;4.07;;;0.60;;
20322;SDS011;10319;52.206;20.996;2023-04-03T14:09:38;3.10;;;0.80;;
20322;SDS011;10319;52.206;20.996;2023-04-03T14:12:24;1.33;;;0.50;;
20322;SDS011;10319;52.206;20.996;2023-04-03T14:14:50;1.77;;;0.50;;
20322;SDS011;10319;52.206;20.996;2023-04-03T14:17:17;2.57;;;0.70;;
20322;SDS011;10319;52.206;20.996;2023-04-03T14:19:43;3.40;;;0.73;;
20322;SDS011;10319;52.206;20.996;2023-04-03T14:22:16;1.60;;;0.50;;
20322;SDS011;10319;52.206;20.996;2023-04-03T14:24:41;3.57;;;0.60;;
20322;SDS011;10319;52.206;20.996;2023-04-03T14:27:16;2.57;;;0.73;;
20322;SDS011;10319;52.206;20.996;2023-04-03T14:29:41;2.27;;;0.50;;
20322;SDS011;10319;52.206;20.996;2023-04-03T14:32:06;4.57;;;0.73;;
20322;SDS011;10319;52.206;20.996;2023-04-03T14:34:31;4.33;;;0.77;;
20322;SDS011;10319;52.206;20.996;2023-04-03T14:36:57;2.90;;;0.67;;
20322;SDS011;10319;52.206;20.996;2023-04-03T14:39:22;2.70;;;0.57;;
20322;SDS011;10319;52.206;20.996;2023-04-03T14:41:47;1.47;;;0.30;;
20322;SDS011;10319;52.206;20.996;2023-04-03T14:44:13;2.40;;;0.57;;
20322;SDS011;10319;52.206;20.996;2023-04-03T14:46:39;1.87;;;0.60;;
20322;SDS011;10319;52.206;20.996;2023-04-03T14:49:18;2.63;;;0.73;;
20322;SDS011;10319;52.206;20.996;2023-04-03T14:51:44;4.33;;;0.70;;
20322;SDS011;10319;52.206;20.996;2023-04-03T14:54:19;1.97;;;0.47;;
20322;SDS011;10319;52.206;20.996;2023-04-03T14:56:46;4.10;;;0.60;;
20322;SDS011;10319;52.206;20.996;2023-04-03T14:59:12;3.33;;;0.83;;
20322;SDS011;10319;52.206;20.996;2023-04-03T15:01:38;3.00;;;0.60;;
20322;SDS011;10319;52.206;20.996;2023-04-03T15:04:16;3.23;;;0.80;;
20322;SDS011;10319;52.206;20.996;2023-04-03T15:06:42;2.00;;;0.53;;
20322;SDS011;10319;52.206;20.996;2023-04-03T15:09:16;5.80;;;1.00;;
20322;SDS011;10319;52.206;20.996;2023-04-03T15:11:43;2.73;;;0.53;;
20322;SDS011;10319;52.206;20.996;2023-04-03T15:14:09;3.90;;;0.77;;
20322;SDS011;10319;52.206;20.996;2023-04-03T15:16:34;3.27;;;1.00;;
20322;SDS011;10319;52.206;20.996;2023-04-03T15:19:00;3.13;;;0.53;;
20322;SDS011;10319;52.206;20.996;2023-04-03T15:21:25;3.67;;;0.60;;
20322;SDS011;10319;52.206;20.996;2023-04-03T15:23:50;2.93;;;0.70;;
20322;SDS011;10319;52.206;20.996;2023-04-03T15:26:15;5.10;;;0.80;;
20322;SDS011;10319;52.206;20.996;2023-04-03T15:28:42;4.33;;;0.87;;
20322;SDS011;10319;52.206;20.996;2023-04-03T15:31:07;4.03;;;0.77;;
20322;SDS011;10319;52.206;20.996;2023-04-03T15:33:33;3.07;;;0.70;;
20322;SDS011;10319;52.206;20.996;2023-04-03T15:35:59;4.53;;;0.80;;
20322;SDS011;10319;52.206;20.996;2023-04-03T15:38:24;4.53;;;0.83;;
20322;SDS011;10319;52.206;20.996;2023-04-03T15:40:49;4.97;;;0.93;;
20322;SDS011;10319;52.206;20.996;2023-04-03T15:43:15;3.30;;;0.63;;
20322;SDS011;10319;52.206;20.996;2023-04-03T15:45:40;3.73;;;0.80;;
20322;SDS011;10319;52.206;20.996;2023-04-03T15:48:06;5.37;;;0.90;;
20322;SDS011;10319;52.206;20.996;2023-04-03T15:50:32;3.30;;;0.83;;
20322;SDS011;10319;52.206;20.996;2023-04-03T15:52:57;6.30;;;0.93;;
20322;SDS011;10319;52.206;20.996;2023-04-03T15:55:24;5.73;;;1.20;;
20322;SDS011;10319;52.206;20.996;2023-04-03T15:57:50;9.67;;;1.30;;
20322;SDS011;10319;52.206;20.996;2023-04-03T16:00:16;2.97;;;0.67;;
20322;SDS011;10319;52.206;20.996;2023-04-03T16:02:41;7.43;;;1.30;;
20322;SDS011;10319;52.206;20.996;2023-04-03T16:05:09;6.93;;;1.33;;
20322;SDS011;10319;52.206;20.996;2023-04-03T16:07:34;6.67;;;1.50;;
20322;SDS011;10319;52.206;20.996;2023-04-03T16:10:01;4.77;;;1.20;;
20322;SDS011;10319;52.206;20.996;2023-04-03T16:12:26;2.70;;;0.67;;
20322;SDS011;10319;52.206;20.996;2023-04-03T16:14:52;4.73;;;0.90;;